sensor_id;sensor_type;location;lat;lon;timestamp;pressure;altitude;pressure_sealevel;temperature
45976;BMP280;31696;42.668;23.322;2024-02-26T00:01:45;94265.44;;;8.90
45976;BMP280;31696;42.668;23.322;2024-02-26T00:03:46;94257.66;;;8.90
45976;BMP280;31696;42.668;23.322;2024-02-26T00:05:47;94264.59;;;8.73
45976;BMP280;31696;42.668;23.322;2024-02-26T00:07:47;94266.47;;;8.72
45976;BMP280;31696;42.668;23.322;2024-02-26T00:09:48;94258.69;;;8.95
45976;BMP280;31696;42.668;23.322;2024-02-26T00:11:49;94260.25;;;8.90
45976;BMP280;31696;42.668;23.322;2024-02-26T00:13:49;94250.94;;;8.87
45976;BMP280;31696;42.668;23.322;2024-02-26T00:15:50;94255.59;;;8.97
45976;BMP280;31696;42.668;23.322;2024-02-26T00:17:50;94260.94;;;8.83
45976;BMP280;31696;42.668;23.322;2024-02-26T00:19:50;94256.81;;;8.96
45976;BMP280;31696;42.668;23.322;2024-02-26T00:21:51;94271.31;;;8.83
45976;BMP280;31696;42.668;23.322;2024-02-26T00:23:52;94259.22;;;8.93
45976;BMP280;31696;42.668;23.322;2024-02-26T00:25:53;94251.28;;;8.91
45976;BMP280;31696;42.668;23.322;2024-02-26T00:27:53;94248.16;;;8.93
45976;BMP280;31696;42.668;23.322;2024-02-26T00:29:53;94243.13;;;9.03
45976;BMP280;31696;42.668;23.322;2024-02-26T00:31:54;94254.31;;;9.13
45976;BMP280;31696;42.668;23.322;2024-02-26T00:33:54;94253.84;;;9.07
45976;BMP280;31696;42.668;23.322;2024-02-26T00:35:54;94248.50;;;9.05
45976;BMP280;31696;42.668;23.322;2024-02-26T00:37:55;94246.81;;;8.84
45976;BMP280;31696;42.668;23.322;2024-02-26T00:39:55;94233.16;;;8.91
45976;BMP280;31696;42.668;23.322;2024-02-26T00:41:55;94231.78;;;8.83
45976;BMP280;31696;42.668;23.322;2024-02-26T00:43:56;94227.50;;;8.70
45976;BMP280;31696;42.668;23.322;2024-02-26T00:45:56;94230.19;;;9.03
45976;BMP280;31696;42.668;23.322;2024-02-26T00:47:56;94221.38;;;9.06
45976;BMP280;31696;42.668;23.322;2024-02-26T00:49:57;94231.88;;;9.15
45976;BMP280;31696;42.668;23.322;2024-02-26T00:51:57;94222.31;;;8.85
45976;BMP280;31696;42.668;23.322;2024-02-26T00:53:57;94222.31;;;8.70
45976;BMP280;31696;42.668;23.322;2024-02-26T00:55:58;94219.81;;;9.03
45976;BMP280;31696;42.668;23.322;2024-02-26T00:58:01;94228.41;;;9.13
45976;BMP280;31696;42.668;23.322;2024-02-26T01:00:02;94227.41;;;9.16
45976;BMP280;31696;42.668;23.322;2024-02-26T01:02:02;94219.44;;;9.14
45976;BMP280;31696;42.668;23.322;2024-02-26T01:04:04;94213.22;;;9.17
45976;BMP280;31696;42.668;23.322;2024-02-26T01:06:04;94214.44;;;9.16
45976;BMP280;31696;42.668;23.322;2024-02-26T01:08:05;94220.50;;;9.11
45976;BMP280;31696;42.668;23.322;2024-02-26T01:10:05;94212.22;;;9.05
45976;BMP280;31696;42.668;23.322;2024-02-26T01:12:06;94200.03;;;9.30
45976;BMP280;31696;42.668;23.322;2024-02-26T01:14:06;94204.38;;;9.27
45976;BMP280;31696;42.668;23.322;2024-02-26T01:16:07;94210.97;;;9.21
45976;BMP280;31696;42.668;23.322;2024-02-26T01:18:07;94215.97;;;9.19
45976;BMP280;31696;42.668;23.322;2024-02-26T01:20:07;94209.41;;;9.18
45976;BMP280;31696;42.668;23.322;2024-02-26T01:22:09;94210.28;;;9.20
45976;BMP280;31696;42.668;23.322;2024-02-26T01:24:09;94214.16;;;9.44
45976;BMP280;31696;42.668;23.322;2024-02-26T01:26:10;94214.38;;;8.76
45976;BMP280;31696;42.668;23.322;2024-02-26T01:28:11;94210.09;;;9.18
45976;BMP280;31696;42.668;23.322;2024-02-26T01:30:11;94205.59;;;9.19
45976;BMP280;31696;42.668;23.322;2024-02-26T01:32:11;94202.69;;;9.15
45976;BMP280;31696;42.668;23.322;2024-02-26T01:34:12;94202.81;;;9.32
45976;BMP280;31696;42.668;23.322;2024-02-26T01:36:12;94201.41;;;9.31
45976;BMP280;31696;42.668;23.322;2024-02-26T01:38:12;94203.53;;;9.25
45976;BMP280;31696;42.668;23.322;2024-02-26T01:40:13;94197.13;;;9.26
45976;BMP280;31696;42.668;23.322;2024-02-26T01:42:17;94198.25;;;9.40
45976;BMP280;31696;42.668;23.322;2024-02-26T01:44:18;94193.47;;;9.29
45976;BMP280;31696;42.668;23.322;2024-02-26T01:46:18;94193.47;;;9.29
45976;BMP280;31696;42.668;23.322;2024-02-26T01:48:19;94191.97;;;9.18
45976;BMP280;31696;42.668;23.322;2024-02-26T01:50:19;94194.03;;;9.20
45976;BMP280;31696;42.668;23.322;2024-02-26T01:52:20;94193.97;;;9.35
45976;BMP280;31696;42.668;23.322;2024-02-26T01:54:20;94193.78;;;9.40
45976;BMP280;31696;42.668;23.322;2024-02-26T01:56:21;94194.25;;;9.14
45976;BMP280;31696;42.668;23.322;2024-02-26T01:58:22;94197.63;;;9.32
45976;BMP280;31696;42.668;23.322;2024-02-26T02:00:22;94192.56;;;9.41
45976;BMP280;31696;42.668;23.322;2024-02-26T02:02:23;94186.22;;;9.35
45976;BMP280;31696;42.668;23.322;2024-02-26T02:04:23;94191.78;;;9.24
45976;BMP280;31696;42.668;23.322;2024-02-26T02:06:24;94191.22;;;9.33
45976;BMP280;31696;42.668;23.322;2024-02-26T02:08:24;94187.91;;;9.40
45976;BMP280;31696;42.668;23.322;2024-02-26T02:10:25;94185.72;;;9.54
45976;BMP280;31696;42.668;23.322;2024-02-26T02:12:27;94182.06;;;9.32
45976;BMP280;31696;42.668;23.322;2024-02-26T02:14:27;94185.88;;;9.31
45976;BMP280;31696;42.668;23.322;2024-02-26T02:16:27;94182.81;;;9.25
45976;BMP280;31696;42.668;23.322;2024-02-26T02:18:28;94181.72;;;9.28
45976;BMP280;31696;42.668;23.322;2024-02-26T02:20:35;94188.38;;;9.14
45976;BMP280;31696;42.668;23.322;2024-02-26T02:22:35;94189.81;;;9.39
45976;BMP280;31696;42.668;23.322;2024-02-26T02:24:36;94190.00;;;9.34
45976;BMP280;31696;42.668;23.322;2024-02-26T02:26:37;94190.81;;;9.44
45976;BMP280;31696;42.668;23.322;2024-02-26T02:28:37;94181.00;;;9.42
45976;BMP280;31696;42.668;23.322;2024-02-26T02:30:39;94188.69;;;9.25
45976;BMP280;31696;42.668;23.322;2024-02-26T02:32:40;94186.47;;;9.46
45976;BMP280;31696;42.668;23.322;2024-02-26T02:34:41;94185.31;;;9.40
45976;BMP280;31696;42.668;23.322;2024-02-26T02:36:48;94174.91;;;9.08
45976;BMP280;31696;42.668;23.322;2024-02-26T02:38:49;94179.06;;;9.43
45976;BMP280;31696;42.668;23.322;2024-02-26T02:40:52;94189.31;;;9.33
45976;BMP280;31696;42.668;23.322;2024-02-26T02:42:52;94189.91;;;9.49
45976;BMP280;31696;42.668;23.322;2024-02-26T02:44:53;94188.22;;;9.44
45976;BMP280;31696;42.668;23.322;2024-02-26T02:46:53;94189.59;;;9.45
45976;BMP280;31696;42.668;23.322;2024-02-26T02:48:53;94182.72;;;9.40
45976;BMP280;31696;42.668;23.322;2024-02-26T02:50:54;94184.78;;;9.41
45976;BMP280;31696;42.668;23.322;2024-02-26T02:52:54;94198.59;;;9.44
45976;BMP280;31696;42.668;23.322;2024-02-26T02:54:54;94194.06;;;9.52
45976;BMP280;31696;42.668;23.322;2024-02-26T02:56:55;94207.91;;;9.47
45976;BMP280;31696;42.668;23.322;2024-02-26T02:58:55;94201.66;;;9.50
45976;BMP280;31696;42.668;23.322;2024-02-26T03:00:55;94200.00;;;9.37
45976;BMP280;31696;42.668;23.322;2024-02-26T03:02:56;94198.25;;;9.40
45976;BMP280;31696;42.668;23.322;2024-02-26T03:04:56;94187.94;;;9.32
45976;BMP280;31696;42.668;23.322;2024-02-26T03:06:56;94196.06;;;9.29
45976;BMP280;31696;42.668;23.322;2024-02-26T03:08:57;94190.94;;;9.14
45976;BMP280;31696;42.668;23.322;2024-02-26T03:10:58;94203.56;;;9.10
45976;BMP280;31696;42.668;23.322;2024-02-26T03:12:58;94204.84;;;9.41
45976;BMP280;31696;42.668;23.322;2024-02-26T03:14:59;94206.47;;;9.21
45976;BMP280;31696;42.668;23.322;2024-02-26T03:17:02;94200.84;;;9.40
45976;BMP280;31696;42.668;23.322;2024-02-26T03:19:03;94195.72;;;9.32
45976;BMP280;31696;42.668;23.322;2024-02-26T03:21:03;94193.16;;;9.25
45976;BMP280;31696;42.668;23.322;2024-02-26T03:23:04;94196.06;;;9.29
45976;BMP280;31696;42.668;23.322;2024-02-26T03:25:04;94184.47;;;9.37
45976;BMP280;31696;42.668;23.322;2024-02-26T03:27:05;94185.88;;;9.31
45976;BMP280;31696;42.668;23.322;2024-02-26T03:29:09;94177.28;;;9.21
45976;BMP280;31696;42.668;23.322;2024-02-26T03:31:09;94179.69;;;9.19
45976;BMP280;31696;42.668;23.322;2024-02-26T03:33:10;94176.94;;;9.17
45976;BMP280;31696;42.668;23.322;2024-02-26T03:35:11;94167.44;;;9.19
45976;BMP280;31696;42.668;23.322;2024-02-26T03:37:11;94179.31;;;9.30
45976;BMP280;31696;42.668;23.322;2024-02-26T03:39:12;94179.31;;;9.30
45976;BMP280;31696;42.668;23.322;2024-02-26T03:41:12;94170.69;;;9.27
45976;BMP280;31696;42.668;23.322;2024-02-26T03:43:13;94176.91;;;9.32
45976;BMP280;31696;42.668;23.322;2024-02-26T03:45:14;94181.78;;;9.13
45976;BMP280;31696;42.668;23.322;2024-02-26T03:47:14;94184.22;;;9.11
45976;BMP280;31696;42.668;23.322;2024-02-26T03:49:14;94173.13;;;9.18
45976;BMP280;31696;42.668;23.322;2024-02-26T03:51:15;94174.97;;;8.92
45976;BMP280;31696;42.668;23.322;2024-02-26T03:53:15;94161.13;;;9.05
45976;BMP280;31696;42.668;23.322;2024-02-26T03:55:16;94168.69;;;9.11
45976;BMP280;31696;42.668;23.322;2024-02-26T03:57:20;94171.44;;;9.13
45976;BMP280;31696;42.668;23.322;2024-02-26T03:59:21;94168.31;;;9.22
45976;BMP280;31696;42.668;23.322;2024-02-26T04:01:24;94170.53;;;9.18
45976;BMP280;31696;42.668;23.322;2024-02-26T04:03:24;94168.00;;;9.10
45976;BMP280;31696;42.668;23.322;2024-02-26T04:05:25;94166.59;;;9.17
45976;BMP280;31696;42.668;23.322;2024-02-26T04:07:25;94158.06;;;8.91
45976;BMP280;31696;42.668;23.322;2024-02-26T04:09:26;94158.72;;;8.92
45976;BMP280;31696;42.668;23.322;2024-02-26T04:11:26;94157.94;;;9.22
45976;BMP280;31696;42.668;23.322;2024-02-26T04:13:27;94166.44;;;9.15
45976;BMP280;31696;42.668;23.322;2024-02-26T04:15:27;94164.47;;;9.30
45976;BMP280;31696;42.668;23.322;2024-02-26T04:17:27;94152.53;;;8.95
45976;BMP280;31696;42.668;23.322;2024-02-26T04:19:27;94151.16;;;8.86
45976;BMP280;31696;42.668;23.322;2024-02-26T04:21:28;94150.13;;;8.82
45976;BMP280;31696;42.668;23.322;2024-02-26T04:23:28;94155.88;;;9.20
45976;BMP280;31696;42.668;23.322;2024-02-26T04:25:29;94162.75;;;9.18
45976;BMP280;31696;42.668;23.322;2024-02-26T04:27:29;94162.13;;;9.10
45976;BMP280;31696;42.668;23.322;2024-02-26T04:29:29;94150.63;;;8.96
45976;BMP280;31696;42.668;23.322;2024-02-26T04:31:30;94146.09;;;9.04
45976;BMP280;31696;42.668;23.322;2024-02-26T04:33:35;94148.53;;;9.02
45976;BMP280;31696;42.668;23.322;2024-02-26T04:35:36;94146.97;;;8.99
45976;BMP280;31696;42.668;23.322;2024-02-26T04:37:36;94152.50;;;9.03
45976;BMP280;31696;42.668;23.322;2024-02-26T04:39:36;94150.44;;;9.01
45976;BMP280;31696;42.668;23.322;2024-02-26T04:41:37;94161.63;;;9.04
45976;BMP280;31696;42.668;23.322;2024-02-26T04:43:37;94154.19;;;9.08
45976;BMP280;31696;42.668;23.322;2024-02-26T04:45:43;94158.47;;;9.13
45976;BMP280;31696;42.668;23.322;2024-02-26T04:47:44;94155.97;;;8.98
45976;BMP280;31696;42.668;23.322;2024-02-26T04:49:44;94158.41;;;8.96
45976;BMP280;31696;42.668;23.322;2024-02-26T04:51:44;94151.78;;;9.10
45976;BMP280;31696;42.668;23.322;2024-02-26T04:53:44;94157.78;;;9.12
45976;BMP280;31696;42.668;23.322;2024-02-26T04:55:45;94165.78;;;9.07
45976;BMP280;31696;42.668;23.322;2024-02-26T04:57:45;94163.38;;;9.01
45976;BMP280;31696;42.668;23.322;2024-02-26T04:59:45;94156.09;;;9.07
45976;BMP280;31696;42.668;23.322;2024-02-26T05:01:46;94166.94;;;9.13
45976;BMP280;31696;42.668;23.322;2024-02-26T05:03:46;94169.03;;;9.15
45976;BMP280;31696;42.668;23.322;2024-02-26T05:05:47;94169.34;;;9.19
45976;BMP280;31696;42.668;23.322;2024-02-26T05:07:47;94179.06;;;9.43
45976;BMP280;31696;42.668;23.322;2024-02-26T05:09:47;94183.88;;;9.14
45976;BMP280;31696;42.668;23.322;2024-02-26T05:11:49;94186.06;;;8.85
45976;BMP280;31696;42.668;23.322;2024-02-26T05:13:50;94184.72;;;9.17
45976;BMP280;31696;42.668;23.322;2024-02-26T05:15:50;94192.44;;;9.32
45976;BMP280;31696;42.668;23.322;2024-02-26T05:17:52;94195.34;;;9.36
45976;BMP280;31696;42.668;23.322;2024-02-26T05:19:52;94194.53;;;9.26
45976;BMP280;31696;42.668;23.322;2024-02-26T05:21:53;94200.75;;;9.23
45976;BMP280;31696;42.668;23.322;2024-02-26T05:23:53;94206.34;;;9.12
45976;BMP280;31696;42.668;23.322;2024-02-26T05:25:54;94206.63;;;9.23
45976;BMP280;31696;42.668;23.322;2024-02-26T05:27:54;94198.69;;;9.21
45976;BMP280;31696;42.668;23.322;2024-02-26T05:29:54;94200.78;;;9.08
45976;BMP280;31696;42.668;23.322;2024-02-26T05:31:55;94203.53;;;9.25
45976;BMP280;31696;42.668;23.322;2024-02-26T05:33:55;94217.38;;;9.12
45976;BMP280;31696;42.668;23.322;2024-02-26T05:35:56;94221.41;;;9.38
45976;BMP280;31696;42.668;23.322;2024-02-26T05:37:56;94223.69;;;9.34
45976;BMP280;31696;42.668;23.322;2024-02-26T05:39:56;94227.53;;;9.18
45976;BMP280;31696;42.668;23.322;2024-02-26T05:41:57;94214.88;;;9.37
45976;BMP280;31696;42.668;23.322;2024-02-26T05:43:57;94225.88;;;9.45
45976;BMP280;31696;42.668;23.322;2024-02-26T05:45:58;94224.66;;;9.06
45976;BMP280;31696;42.668;23.322;2024-02-26T05:47:58;94222.88;;;9.24
45976;BMP280;31696;42.668;23.322;2024-02-26T05:49:58;94220.47;;;9.26
45976;BMP280;31696;42.668;23.322;2024-02-26T05:52:00;94230.41;;;9.37
45976;BMP280;31696;42.668;23.322;2024-02-26T05:54:01;94222.06;;;9.46
45976;BMP280;31696;42.668;23.322;2024-02-26T05:56:01;94221.91;;;9.44
45976;BMP280;31696;42.668;23.322;2024-02-26T05:58:02;94229.03;;;9.28
45976;BMP280;31696;42.668;23.322;2024-02-26T06:00:02;94220.38;;;9.41
45976;BMP280;31696;42.668;23.322;2024-02-26T06:02:11;94217.72;;;9.48
45976;BMP280;31696;42.668;23.322;2024-02-26T06:04:12;94224.00;;;9.38
45976;BMP280;31696;42.668;23.322;2024-02-26T06:06:12;94223.47;;;9.39
45976;BMP280;31696;42.668;23.322;2024-02-26T06:08:14;94236.91;;;9.53
45976;BMP280;31696;42.668;23.322;2024-02-26T06:10:14;94236.16;;;9.68
45976;BMP280;31696;42.668;23.322;2024-02-26T06:12:15;94238.59;;;9.58
45976;BMP280;31696;42.668;23.322;2024-02-26T06:14:15;94233.25;;;9.56
45976;BMP280;31696;42.668;23.322;2024-02-26T06:16:18;94239.00;;;9.47
45976;BMP280;31696;42.668;23.322;2024-02-26T06:18:18;94233.81;;;9.47
45976;BMP280;31696;42.668;23.322;2024-02-26T06:20:18;94244.34;;;9.49
45976;BMP280;31696;42.668;23.322;2024-02-26T06:22:19;94234.47;;;9.55
45976;BMP280;31696;42.668;23.322;2024-02-26T06:24:19;94239.25;;;9.66
45976;BMP280;31696;42.668;23.322;2024-02-26T06:26:20;94235.03;;;9.46
45976;BMP280;31696;42.668;23.322;2024-02-26T06:28:21;94235.38;;;9.50
45976;BMP280;31696;42.668;23.322;2024-02-26T06:30:21;94240.38;;;9.48
45976;BMP280;31696;42.668;23.322;2024-02-26T06:32:21;94237.56;;;9.54
45976;BMP280;31696;42.668;23.322;2024-02-26T06:34:23;94233.94;;;9.17
45976;BMP280;31696;42.668;23.322;2024-02-26T06:36:23;94241.41;;;9.53
45976;BMP280;31696;42.668;23.322;2024-02-26T06:38:23;94227.72;;;9.60
45976;BMP280;31696;42.668;23.322;2024-02-26T06:40:24;94239.81;;;9.57
45976;BMP280;31696;42.668;23.322;2024-02-26T06:42:25;94242.25;;;9.55
45976;BMP280;31696;42.668;23.322;2024-02-26T06:44:26;94246.16;;;9.31
45976;BMP280;31696;42.668;23.322;2024-02-26T06:46:26;94243.22;;;9.27
45976;BMP280;31696;42.668;23.322;2024-02-26T06:48:28;94237.00;;;9.30
45976;BMP280;31696;42.668;23.322;2024-02-26T06:50:29;94232.06;;;9.57
45976;BMP280;31696;42.668;23.322;2024-02-26T06:52:29;94242.69;;;9.69
45976;BMP280;31696;42.668;23.322;2024-02-26T06:54:30;94237.19;;;9.65
45976;BMP280;31696;42.668;23.322;2024-02-26T06:56:30;94233.34;;;9.73
45976;BMP280;31696;42.668;23.322;2024-02-26T06:58:30;94237.22;;;9.57
45976;BMP280;31696;42.668;23.322;2024-02-26T07:00:31;94243.13;;;9.50
45976;BMP280;31696;42.668;23.322;2024-02-26T07:02:31;94238.06;;;9.67
45976;BMP280;31696;42.668;23.322;2024-02-26T07:04:32;94237.28;;;9.74
45976;BMP280;31696;42.668;23.322;2024-02-26T07:06:34;94234.88;;;9.76
45976;BMP280;31696;42.668;23.322;2024-02-26T07:08:34;94241.38;;;9.60
45976;BMP280;31696;42.668;23.322;2024-02-26T07:10:34;94244.03;;;9.77
45976;BMP280;31696;42.668;23.322;2024-02-26T07:12:35;94245.72;;;9.82
45976;BMP280;31696;42.668;23.322;2024-02-26T07:14:35;94242.09;;;9.53
45976;BMP280;31696;42.668;23.322;2024-02-26T07:16:37;94248.13;;;9.56
45976;BMP280;31696;42.668;23.322;2024-02-26T07:18:41;94248.56;;;9.69
45976;BMP280;31696;42.668;23.322;2024-02-26T07:20:41;94250.09;;;9.72
45976;BMP280;31696;42.668;23.322;2024-02-26T07:22:41;94248.16;;;9.80
45976;BMP280;31696;42.668;23.322;2024-02-26T07:24:42;94250.16;;;9.89
45976;BMP280;31696;42.668;23.322;2024-02-26T07:26:43;94254.91;;;9.83
45976;BMP280;31696;42.668;23.322;2024-02-26T07:28:43;94259.13;;;9.71
45976;BMP280;31696;42.668;23.322;2024-02-26T07:30:43;94253.25;;;9.95
45976;BMP280;31696;42.668;23.322;2024-02-26T07:32:44;94241.75;;;10.31
45976;BMP280;31696;42.668;23.322;2024-02-26T07:34:44;94249.25;;;10.27
45976;BMP280;31696;42.668;23.322;2024-02-26T07:36:45;94262.69;;;10.33
45976;BMP280;31696;42.668;23.322;2024-02-26T07:38:45;94254.03;;;10.13
45976;BMP280;31696;42.668;23.322;2024-02-26T07:40:45;94256.50;;;10.04
45976;BMP280;31696;42.668;23.322;2024-02-26T07:42:46;94257.16;;;9.79
45976;BMP280;31696;42.668;23.322;2024-02-26T07:44:46;94259.34;;;10.15
45976;BMP280;31696;42.668;23.322;2024-02-26T07:46:46;94262.16;;;10.10
45976;BMP280;31696;42.668;23.322;2024-02-26T07:48:47;94256.53;;;10.21
45976;BMP280;31696;42.668;23.322;2024-02-26T07:50:47;94255.69;;;10.43
45976;BMP280;31696;42.668;23.322;2024-02-26T07:52:47;94250.50;;;10.43
45976;BMP280;31696;42.668;23.322;2024-02-26T07:54:48;94255.38;;;10.39
45976;BMP280;31696;42.668;23.322;2024-02-26T07:56:48;94254.56;;;10.53
45976;BMP280;31696;42.668;23.322;2024-02-26T07:58:48;94251.88;;;10.44
45976;BMP280;31696;42.668;23.322;2024-02-26T08:00:49;94248.06;;;10.45
45976;BMP280;31696;42.668;23.322;2024-02-26T08:02:49;94249.16;;;10.76
45976;BMP280;31696;42.668;23.322;2024-02-26T08:04:50;94238.84;;;10.69
45976;BMP280;31696;42.668;23.322;2024-02-26T08:06:50;94244.88;;;10.88
45976;BMP280;31696;42.668;23.322;2024-02-26T08:08:50;94246.19;;;10.80
45976;BMP280;31696;42.668;23.322;2024-02-26T08:10:51;94240.50;;;10.57
45976;BMP280;31696;42.668;23.322;2024-02-26T08:12:51;94238.84;;;10.69
45976;BMP280;31696;42.668;23.322;2024-02-26T08:14:52;94240.31;;;10.79
45976;BMP280;31696;42.668;23.322;2024-02-26T08:16:52;94240.78;;;10.85
45976;BMP280;31696;42.668;23.322;2024-02-26T08:18:52;94240.63;;;11.27
45976;BMP280;31696;42.668;23.322;2024-02-26T08:20:53;94234.94;;;11.12
45976;BMP280;31696;42.668;23.322;2024-02-26T08:22:53;94237.56;;;10.94
45976;BMP280;31696;42.668;23.322;2024-02-26T08:24:53;94243.97;;;11.11
45976;BMP280;31696;42.668;23.322;2024-02-26T08:26:54;94242.59;;;11.10
45976;BMP280;31696;42.668;23.322;2024-02-26T08:28:54;94244.09;;;11.13
45976;BMP280;31696;42.668;23.322;2024-02-26T08:30:55;94232.66;;;11.16
45976;BMP280;31696;42.668;23.322;2024-02-26T08:32:56;94246.47;;;11.62
45976;BMP280;31696;42.668;23.322;2024-02-26T08:34:56;94233.78;;;11.76
45976;BMP280;31696;42.668;23.322;2024-02-26T08:36:57;94228.09;;;11.60
45976;BMP280;31696;42.668;23.322;2024-02-26T08:38:57;94236.94;;;11.47
45976;BMP280;31696;42.668;23.322;2024-02-26T08:40:57;94233.09;;;11.75
45976;BMP280;31696;42.668;23.322;2024-02-26T08:42:58;94237.03;;;11.40
45976;BMP280;31696;42.668;23.322;2024-02-26T08:44:58;94236.00;;;11.52
45976;BMP280;31696;42.668;23.322;2024-02-26T08:47:01;94230.75;;;11.79
45976;BMP280;31696;42.668;23.322;2024-02-26T08:49:02;94228.53;;;12.02
45976;BMP280;31696;42.668;23.322;2024-02-26T08:51:06;94230.69;;;11.96
45976;BMP280;31696;42.668;23.322;2024-02-26T08:53:06;94239.44;;;11.91
45976;BMP280;31696;42.668;23.322;2024-02-26T08:55:07;94227.00;;;12.09
45976;BMP280;31696;42.668;23.322;2024-02-26T08:57:09;94235.09;;;12.03
45976;BMP280;31696;42.668;23.322;2024-02-26T08:59:09;94234.06;;;12.26
45976;BMP280;31696;42.668;23.322;2024-02-26T09:01:10;94226.66;;;12.32
45976;BMP280;31696;42.668;23.322;2024-02-26T09:03:10;94228.84;;;12.26
45976;BMP280;31696;42.668;23.322;2024-02-26T09:05:11;94225.72;;;12.37
45976;BMP280;31696;42.668;23.322;2024-02-26T09:07:11;94221.88;;;12.28
45976;BMP280;31696;42.668;23.322;2024-02-26T09:09:12;94211.75;;;12.32
45976;BMP280;31696;42.668;23.322;2024-02-26T09:11:12;94211.03;;;12.12
45976;BMP280;31696;42.668;23.322;2024-02-26T09:13:12;94213.91;;;12.26
45976;BMP280;31696;42.668;23.322;2024-02-26T09:15:13;94226.13;;;12.24
45976;BMP280;31696;42.668;23.322;2024-02-26T09:17:13;94219.28;;;12.38
45976;BMP280;31696;42.668;23.322;2024-02-26T09:19:16;94220.78;;;12.50
45976;BMP280;31696;42.668;23.322;2024-02-26T09:21:17;94206.97;;;12.48
45976;BMP280;31696;42.668;23.322;2024-02-26T09:23:23;94213.13;;;12.62
45976;BMP280;31696;42.668;23.322;2024-02-26T09:25:23;94211.06;;;12.80
45976;BMP280;31696;42.668;23.322;2024-02-26T09:27:23;94209.56;;;12.67
45976;BMP280;31696;42.668;23.322;2024-02-26T09:29:24;94210.50;;;12.81
45976;BMP280;31696;42.668;23.322;2024-02-26T09:31:26;94211.19;;;12.72
45976;BMP280;31696;42.668;23.322;2024-02-26T09:33:26;94205.31;;;12.62
45976;BMP280;31696;42.668;23.322;2024-02-26T09:35:27;94208.59;;;12.72
45976;BMP280;31696;42.668;23.322;2024-02-26T09:37:27;94204.19;;;12.94
45976;BMP280;31696;42.668;23.322;2024-02-26T09:39:28;94209.13;;;12.99
45976;BMP280;31696;42.668;23.322;2024-02-26T09:41:28;94207.09;;;12.79
45976;BMP280;31696;42.668;23.322;2024-02-26T09:43:35;94207.81;;;12.60
45976;BMP280;31696;42.668;23.322;2024-02-26T09:45:36;94190.22;;;12.70
45976;BMP280;31696;42.668;23.322;2024-02-26T09:47:36;94199.28;;;12.88
45976;BMP280;31696;42.668;23.322;2024-02-26T09:49:38;94192.03;;;12.67
45976;BMP280;31696;42.668;23.322;2024-02-26T09:51:38;94189.69;;;12.71
45976;BMP280;31696;42.668;23.322;2024-02-26T09:53:39;94203.38;;;12.72
45976;BMP280;31696;42.668;23.322;2024-02-26T09:55:43;94204.91;;;12.46
45976;BMP280;31696;42.668;23.322;2024-02-26T09:57:44;94191.75;;;12.44
45976;BMP280;31696;42.668;23.322;2024-02-26T09:59:45;94194.91;;;12.62
45976;BMP280;31696;42.668;23.322;2024-02-26T10:01:47;94193.53;;;12.80
45976;BMP280;31696;42.668;23.322;2024-02-26T10:03:48;94187.19;;;12.83
45976;BMP280;31696;42.668;23.322;2024-02-26T10:05:50;94182.53;;;12.91
45976;BMP280;31696;42.668;23.322;2024-02-26T10:07:51;94184.91;;;13.27
45976;BMP280;31696;42.668;23.322;2024-02-26T10:09:52;94192.06;;;13.17
45976;BMP280;31696;42.668;23.322;2024-02-26T10:11:52;94178.94;;;12.96
45976;BMP280;31696;42.668;23.322;2024-02-26T10:13:53;94187.19;;;12.83
45976;BMP280;31696;42.668;23.322;2024-02-26T10:15:53;94173.25;;;12.69
45976;BMP280;31696;42.668;23.322;2024-02-26T10:17:53;94176.44;;;13.17
45976;BMP280;31696;42.668;23.322;2024-02-26T10:19:54;94166.16;;;13.19
45976;BMP280;31696;42.668;23.322;2024-02-26T10:21:56;94169.75;;;13.14
45976;BMP280;31696;42.668;23.322;2024-02-26T10:23:57;94167.41;;;13.09
45976;BMP280;31696;42.668;23.322;2024-02-26T10:25:58;94167.97;;;13.07
45976;BMP280;31696;42.668;23.322;2024-02-26T10:27:59;94170.63;;;13.28
45976;BMP280;31696;42.668;23.322;2024-02-26T10:30:02;94166.09;;;13.39
45976;BMP280;31696;42.668;23.322;2024-02-26T10:32:03;94161.00;;;13.41
45976;BMP280;31696;42.668;23.322;2024-02-26T10:34:03;94157.94;;;13.54
45976;BMP280;31696;42.668;23.322;2024-02-26T10:36:04;94145.09;;;13.37
45976;BMP280;31696;42.668;23.322;2024-02-26T10:38:05;94154.53;;;13.01
45976;BMP280;31696;42.668;23.322;2024-02-26T10:40:10;94151.75;;;13.49
45976;BMP280;31696;42.668;23.322;2024-02-26T10:42:12;94148.16;;;13.23
45976;BMP280;31696;42.668;23.322;2024-02-26T10:44:12;94144.75;;;13.11
45976;BMP280;31696;42.668;23.322;2024-02-26T10:46:13;94147.31;;;13.30
45976;BMP280;31696;42.668;23.322;2024-02-26T10:48:14;94150.81;;;13.45
45976;BMP280;31696;42.668;23.322;2024-02-26T10:50:14;94141.84;;;13.26
45976;BMP280;31696;42.668;23.322;2024-02-26T10:52:17;94146.53;;;13.18
45976;BMP280;31696;42.668;23.322;2024-02-26T10:54:19;94146.84;;;13.44
45976;BMP280;31696;42.668;23.322;2024-02-26T10:56:19;94145.16;;;13.17
45976;BMP280;31696;42.668;23.322;2024-02-26T10:58:21;94144.94;;;13.34
45976;BMP280;31696;42.668;23.322;2024-02-26T11:00:21;94144.47;;;13.48
45976;BMP280;31696;42.668;23.322;2024-02-26T11:02:22;94134.03;;;13.48
45976;BMP280;31696;42.668;23.322;2024-02-26T11:04:22;94135.09;;;13.64
45976;BMP280;31696;42.668;23.322;2024-02-26T11:06:25;94132.72;;;13.47
45976;BMP280;31696;42.668;23.322;2024-02-26T11:08:26;94132.34;;;13.31
45976;BMP280;31696;42.668;23.322;2024-02-26T11:10:26;94135.78;;;13.33
45976;BMP280;31696;42.668;23.322;2024-02-26T11:12:28;94139.00;;;13.44
45976;BMP280;31696;42.668;23.322;2024-02-26T11:14:29;94136.63;;;13.26
45976;BMP280;31696;42.668;23.322;2024-02-26T11:16:29;94127.00;;;13.60
45976;BMP280;31696;42.668;23.322;2024-02-26T11:18:30;94139.94;;;13.17
45976;BMP280;31696;42.668;23.322;2024-02-26T11:20:31;94143.81;;;13.47
45976;BMP280;31696;42.668;23.322;2024-02-26T11:22:32;94138.38;;;13.33
45976;BMP280;31696;42.668;23.322;2024-02-26T11:24:33;94133.16;;;13.33
45976;BMP280;31696;42.668;23.322;2024-02-26T11:26:34;94135.56;;;13.51
45976;BMP280;31696;42.668;23.322;2024-02-26T11:28:36;94132.06;;;13.37
45976;BMP280;31696;42.668;23.322;2024-02-26T11:30:38;94139.78;;;13.56
45976;BMP280;31696;42.668;23.322;2024-02-26T11:32:43;94128.66;;;13.55